createdAt,value
2018-09-29T00:01:35.849Z,3.40
2018-09-29T00:04:39.033Z,2.53
2018-09-29T00:07:42.174Z,3.00
2018-09-29T00:10:45.407Z,2.60
2018-09-29T00:13:48.566Z,2.63
2018-09-29T00:16:51.661Z,2.87
2018-09-29T00:19:54.850Z,2.33
2018-09-29T00:22:58.053Z,3.17
2018-09-29T00:26:01.201Z,2.83
2018-09-29T00:29:04.320Z,2.43
2018-09-29T00:32:07.409Z,2.53
2018-09-29T00:35:10.609Z,2.53
2018-09-29T00:38:13.736Z,2.13
2018-09-29T00:41:16.875Z,2.73
2018-09-29T00:44:20.070Z,1.83
2018-09-29T00:47:23.163Z,1.93
2018-09-29T00:50:26.359Z,2.27
2018-09-29T00:53:29.473Z,4.57
2018-09-29T00:56:32.608Z,3.10
2018-09-29T00:59:35.867Z,2.47
2018-09-29T01:02:38.999Z,3.13
2018-09-29T01:05:42.110Z,2.00
2018-09-29T01:08:45.305Z,2.90
2018-09-29T01:11:48.398Z,2.50
2018-09-29T01:14:51.625Z,2.30
2018-09-29T01:17:54.789Z,3.10
2018-09-29T01:20:57.909Z,2.40
2018-09-29T01:24:01.094Z,2.20
2018-09-29T01:27:04.252Z,2.80
2018-09-29T01:30:07.596Z,1.90
2018-09-29T01:33:10.785Z,1.93
2018-09-29T01:36:14.264Z,1.73
2018-09-29T01:39:17.482Z,1.80
2018-09-29T01:42:20.618Z,2.57
2018-09-29T01:45:23.768Z,1.70
2018-09-29T01:48:26.859Z,1.37
2018-09-29T01:51:30.018Z,1.57
2018-09-29T01:54:33.227Z,1.60
2018-09-29T01:57:36.392Z,1.87
2018-09-29T02:00:39.613Z,1.97
2018-09-29T02:03:42.737Z,1.23
2018-09-29T02:06:45.906Z,1.70
2018-09-29T02:09:49.306Z,2.03
2018-09-29T02:12:52.442Z,1.90
2018-09-29T02:15:55.583Z,2.20
2018-09-29T02:18:58.774Z,1.73
2018-09-29T02:22:01.951Z,1.50
2018-09-29T02:25:05.209Z,2.13
2018-09-29T02:28:08.345Z,1.77
2018-09-29T02:31:11.461Z,1.57
2018-09-29T02:34:14.565Z,2.20
2018-09-29T02:37:20.142Z,1.80
2018-09-29T02:40:23.652Z,1.40
2018-09-29T02:43:26.838Z,1.73
2018-09-29T02:46:30.011Z,1.60
2018-09-29T02:49:33.140Z,2.23
2018-09-29T02:52:36.575Z,2.00
2018-09-29T02:55:39.750Z,1.37
2018-09-29T02:58:42.900Z,1.70
2018-09-29T03:01:47.055Z,2.17
2018-09-29T03:04:50.226Z,1.90
2018-09-29T03:07:53.338Z,2.50
2018-09-29T03:10:56.482Z,1.73
2018-09-29T03:13:59.588Z,2.27
2018-09-29T03:17:02.721Z,1.83
2018-09-29T03:20:05.734Z,2.27
2018-09-29T03:23:08.945Z,2.00
2018-09-29T03:26:12.143Z,1.63
2018-09-29T03:29:15.322Z,1.43
2018-09-29T03:32:18.572Z,1.40
2018-09-29T03:35:21.739Z,2.13
2018-09-29T03:38:24.867Z,1.07
2018-09-29T03:41:28.066Z,2.03
2018-09-29T03:44:31.438Z,1.50
2018-09-29T03:47:34.669Z,1.77
2018-09-29T03:50:37.794Z,1.40
2018-09-29T03:53:41.053Z,1.30
2018-09-29T03:56:44.166Z,1.27
2018-09-29T03:59:47.364Z,2.27
2018-09-29T04:02:50.557Z,2.10
2018-09-29T04:05:53.769Z,1.77
2018-09-29T04:08:56.877Z,2.00
2018-09-29T04:12:00.122Z,1.67
2018-09-29T04:15:03.641Z,2.30
2018-09-29T04:18:07.861Z,2.97
2018-09-29T04:21:11.077Z,1.93
2018-09-29T04:24:14.745Z,1.80
2018-09-29T04:27:17.933Z,1.60
2018-09-29T04:30:21.070Z,1.70
2018-09-29T04:33:24.265Z,1.90
2018-09-29T04:36:27.406Z,2.20
2018-09-29T04:39:30.623Z,1.90
2018-09-29T04:42:33.825Z,2.77
2018-09-29T04:45:37.012Z,2.40
2018-09-29T04:48:40.117Z,2.40
2018-09-29T04:51:43.288Z,2.10
2018-09-29T04:54:46.481Z,1.83
2018-09-29T04:57:50.597Z,2.47
2018-09-29T05:00:53.737Z,2.07
2018-09-29T05:03:57.876Z,1.93
2018-09-29T05:07:01.120Z,2.47
2018-09-29T05:10:05.444Z,1.43
2018-09-29T05:13:08.602Z,2.00
2018-09-29T05:16:11.857Z,1.90
2018-09-29T05:19:15.130Z,1.33
2018-09-29T05:22:18.261Z,1.77
2018-09-29T05:25:22.534Z,2.23
2018-09-29T05:28:25.665Z,1.40
2018-09-29T05:31:28.955Z,2.97
2018-09-29T05:34:32.130Z,2.53
2018-09-29T05:37:35.302Z,3.00
2018-09-29T05:40:38.580Z,2.20
2018-09-29T05:43:41.703Z,2.20
2018-09-29T05:46:44.853Z,2.87
2018-09-29T05:49:47.975Z,3.37
2018-09-29T05:52:51.372Z,3.23
2018-09-29T05:55:54.691Z,2.20
2018-09-29T05:58:59.201Z,2.93
2018-09-29T06:02:02.717Z,3.23
2018-09-29T06:05:06.049Z,3.50
2018-09-29T06:08:09.227Z,2.47
2018-09-29T06:11:13.350Z,1.90
2018-09-29T06:14:17.700Z,2.80
2018-09-29T06:17:20.856Z,2.53
2018-09-29T06:20:24.159Z,3.37
2018-09-29T06:23:28.293Z,2.50
2018-09-29T06:26:32.502Z,3.23
2018-09-29T06:29:35.809Z,2.67
2018-09-29T06:32:40.189Z,2.63
2018-09-29T06:35:43.442Z,3.37
2018-09-29T06:38:46.610Z,3.13
2018-09-29T06:41:49.804Z,2.30
2018-09-29T06:44:54.426Z,2.03
2018-09-29T06:47:58.064Z,2.17
2018-09-29T06:51:02.351Z,3.33
2018-09-29T06:54:06.370Z,3.60
2018-09-29T06:57:09.657Z,3.00
2018-09-29T07:00:12.963Z,3.27
2018-09-29T07:03:16.169Z,9.07
2018-09-29T07:06:19.393Z,3.23
2018-09-29T07:09:22.536Z,3.30
2018-09-29T07:12:25.898Z,3.50
2018-09-29T07:15:29.149Z,3.70
2018-09-29T07:18:32.311Z,3.47
2018-09-29T07:21:35.558Z,3.57
2018-09-29T07:24:38.746Z,5.97
2018-09-29T07:27:41.889Z,4.30
2018-09-29T07:30:45.122Z,2.70
2018-09-29T07:33:48.308Z,6.13
2018-09-29T07:38:01.548Z,1.63
2018-09-29T07:41:04.770Z,1.40
2018-09-29T07:44:08.342Z,1.63
2018-09-29T07:47:11.545Z,1.20
2018-09-29T07:50:14.713Z,1.47
2018-09-29T07:53:17.838Z,1.77
2018-09-29T07:56:21.056Z,1.60
2018-09-29T07:59:24.541Z,1.27
2018-09-29T08:02:27.675Z,1.50
2018-09-29T08:05:30.757Z,2.13
2018-09-29T08:08:33.882Z,1.90
2018-09-29T08:11:37.029Z,2.27
2018-09-29T08:14:40.288Z,2.07
2018-09-29T08:17:43.506Z,1.80
2018-09-29T08:20:46.651Z,3.10
2018-09-29T08:23:49.884Z,1.57
2018-09-29T08:26:52.988Z,1.70
2018-09-29T08:29:56.113Z,1.70
2018-09-29T08:32:59.254Z,2.37
2018-09-29T08:36:02.382Z,1.90
2018-09-29T08:39:07.681Z,2.10
2018-09-29T08:42:10.904Z,2.07
2018-09-29T08:45:14.048Z,1.80
2018-09-29T08:48:17.166Z,1.80
2018-09-29T08:51:20.299Z,1.80
2018-09-29T08:54:23.553Z,1.70
2018-09-29T08:57:26.690Z,1.77
2018-09-29T09:00:29.957Z,1.97
2018-09-29T09:03:33.238Z,1.80
2018-09-29T09:06:36.429Z,1.70
2018-09-29T09:09:39.617Z,1.73
2018-09-29T09:12:42.810Z,1.50
2018-09-29T09:15:46.106Z,1.90
2018-09-29T09:18:49.244Z,1.87
2018-09-29T09:21:52.324Z,1.43
2018-09-29T09:24:55.458Z,2.80
2018-09-29T09:27:58.590Z,1.43
2018-09-29T09:31:01.749Z,1.97
2018-09-29T09:34:04.958Z,1.17
2018-09-29T09:37:08.107Z,1.33
2018-09-29T09:40:11.346Z,1.20
2018-09-29T09:43:14.469Z,0.70
2018-09-29T09:46:17.599Z,1.13
2018-09-29T09:49:20.737Z,1.13
2018-09-29T09:52:23.862Z,0.70
2018-09-29T09:55:28.034Z,0.90
2018-09-29T09:58:31.217Z,0.73
2018-09-29T10:01:39.025Z,0.67
2018-09-29T10:04:42.183Z,0.87
2018-09-29T10:07:45.397Z,0.70
2018-09-29T10:10:48.466Z,0.83
2018-09-29T10:13:51.680Z,0.90
2018-09-29T10:16:54.826Z,0.70
2018-09-29T10:19:57.970Z,1.00
2018-09-29T10:23:01.077Z,0.50
2018-09-29T10:26:04.288Z,0.80
2018-09-29T10:29:07.584Z,1.00
2018-09-29T10:32:10.741Z,0.67
2018-09-29T10:35:13.957Z,0.70
2018-09-29T10:38:17.201Z,1.00
2018-09-29T10:41:20.342Z,1.30
2018-09-29T10:44:23.473Z,1.20
2018-09-29T10:47:27.721Z,0.73
2018-09-29T10:50:30.868Z,1.00
2018-09-29T10:53:33.965Z,0.50
2018-09-29T10:56:37.128Z,0.60
2018-09-29T10:59:40.338Z,0.93
2018-09-29T11:02:43.603Z,0.90
2018-09-29T11:05:46.660Z,0.70
2018-09-29T11:08:49.794Z,0.80
2018-09-29T11:11:53.998Z,0.77
2018-09-29T11:14:58.267Z,0.50
2018-09-29T11:18:01.518Z,0.90
2018-09-29T11:21:04.864Z,0.60
2018-09-29T11:24:08.052Z,0.50
2018-09-29T11:27:11.221Z,0.60
2018-09-29T11:30:14.445Z,0.60
2018-09-29T11:33:17.639Z,0.93
2018-09-29T11:36:20.768Z,0.80
2018-09-29T11:39:24.045Z,0.53
2018-09-29T11:42:27.133Z,0.50
2018-09-29T11:45:30.392Z,0.90
2018-09-29T11:48:33.559Z,0.83
2018-09-29T11:51:36.821Z,0.80
2018-09-29T11:54:40.065Z,0.60
2018-09-29T11:57:43.317Z,0.50
2018-09-29T12:00:46.645Z,1.00
2018-09-29T12:03:50.818Z,0.60
2018-09-29T12:06:53.906Z,0.60
2018-09-29T12:09:59.093Z,0.63
2018-09-29T12:13:02.779Z,0.70
2018-09-29T12:16:07.048Z,0.60
2018-09-29T12:19:10.321Z,0.60
2018-09-29T12:22:13.565Z,0.80
2018-09-29T12:25:16.826Z,0.40
2018-09-29T12:28:19.974Z,0.60
2018-09-29T12:31:23.214Z,0.57
2018-09-29T12:34:26.364Z,0.70
2018-09-29T12:37:29.541Z,0.57
2018-09-29T12:40:32.615Z,0.50
2018-09-29T12:43:36.118Z,0.70
2018-09-29T12:46:39.241Z,0.70
2018-09-29T12:49:42.341Z,0.73
2018-09-29T12:52:45.486Z,0.70
2018-09-29T12:55:48.678Z,0.77
2018-09-29T12:58:51.835Z,0.60
2018-09-29T13:01:54.995Z,0.60
2018-09-29T13:04:58.274Z,0.43
2018-09-29T13:08:01.458Z,0.50
2018-09-29T13:11:04.804Z,0.63
2018-09-29T13:14:07.899Z,0.50
2018-09-29T13:17:12.173Z,0.50
2018-09-29T13:20:15.480Z,0.80
2018-09-29T13:23:18.694Z,0.53
2018-09-29T13:26:21.943Z,0.60
2018-09-29T13:29:25.136Z,0.53
2018-09-29T13:32:28.315Z,0.70
2018-09-29T13:35:31.469Z,0.60
2018-09-29T13:38:34.960Z,0.70
2018-09-29T13:41:38.187Z,0.60
2018-09-29T13:44:41.403Z,0.77
2018-09-29T13:47:44.669Z,0.50
2018-09-29T13:50:47.853Z,0.60
2018-09-29T13:53:51.045Z,0.70
2018-09-29T13:56:54.249Z,0.60
2018-09-29T13:59:57.453Z,0.60
2018-09-29T14:03:00.644Z,0.50
2018-09-29T14:06:03.849Z,0.53
2018-09-29T14:09:08.963Z,0.73
2018-09-29T14:12:12.161Z,0.60
2018-09-29T14:15:15.579Z,0.50
2018-09-29T14:18:18.757Z,0.77
2018-09-29T14:21:21.952Z,0.80
2018-09-29T14:24:25.145Z,0.50
2018-09-29T14:27:28.345Z,0.70
2018-09-29T14:30:31.538Z,0.60
2018-09-29T14:33:34.731Z,0.50
2018-09-29T14:36:37.895Z,0.73
2018-09-29T14:39:41.108Z,0.70
2018-09-29T14:42:44.316Z,0.80
2018-09-29T14:45:47.516Z,0.60
2018-09-29T14:48:50.696Z,0.30
2018-09-29T14:51:53.904Z,0.60
2018-09-29T14:54:57.196Z,0.50
2018-09-29T14:58:00.373Z,0.50
2018-09-29T15:01:03.706Z,0.70
2018-09-29T15:04:07.079Z,0.60
2018-09-29T15:07:10.237Z,0.70
2018-09-29T15:10:13.522Z,0.40
2018-09-29T15:13:16.641Z,0.53
2018-09-29T15:16:19.861Z,0.30
2018-09-29T15:19:23.140Z,0.63
2018-09-29T15:22:26.368Z,0.50
2018-09-29T15:25:30.562Z,0.80
2018-09-29T15:28:33.797Z,0.60
2018-09-29T15:31:36.961Z,0.40
2018-09-29T15:34:40.181Z,0.40
2018-09-29T15:37:43.442Z,0.50
2018-09-29T15:40:46.597Z,0.60
2018-09-29T15:43:51.744Z,1.57
2018-09-29T15:46:55.820Z,0.50
2018-09-29T15:49:59.961Z,0.40
2018-09-29T15:53:03.162Z,0.40
2018-09-29T15:56:06.397Z,0.50
2018-09-29T15:59:10.449Z,0.40
2018-09-29T16:02:13.692Z,0.40
2018-09-29T16:05:16.899Z,0.40
2018-09-29T16:08:20.110Z,0.60
2018-09-29T16:11:23.266Z,0.40
2018-09-29T16:14:26.442Z,0.43
2018-09-29T16:17:29.738Z,0.30
2018-09-29T16:20:32.940Z,0.40
2018-09-29T16:23:36.157Z,0.50
2018-09-29T16:26:42.610Z,0.60
2018-09-29T16:29:45.754Z,0.50
2018-09-29T16:32:49.878Z,0.80
2018-09-29T16:35:53.569Z,0.67
2018-09-29T16:38:56.905Z,0.60
2018-09-29T16:42:00.154Z,1.60
2018-09-29T16:45:05.430Z,0.70
2018-09-29T16:48:08.727Z,0.80
2018-09-29T16:51:11.911Z,0.63
2018-09-29T16:54:15.118Z,1.27
2018-09-29T16:57:18.326Z,7.27
2018-09-29T17:00:21.518Z,2.57
2018-09-29T17:03:24.793Z,1.17
2018-09-29T17:06:27.950Z,1.00
2018-09-29T17:09:31.105Z,2.17
2018-09-29T17:12:34.464Z,0.97
2018-09-29T17:15:37.660Z,0.80
2018-09-29T17:18:40.867Z,0.80
2018-09-29T17:21:45.083Z,0.70
2018-09-29T17:24:52.541Z,1.00
2018-09-29T17:27:59.510Z,0.53
2018-09-29T17:31:03.159Z,0.70
2018-09-29T17:34:06.360Z,0.83
2018-09-29T17:37:09.511Z,1.03
2018-09-29T17:40:12.847Z,1.00
2018-09-29T17:43:16.091Z,1.03
2018-09-29T17:46:19.398Z,1.23
2018-09-29T17:49:22.798Z,0.80
2018-09-29T17:52:26.135Z,1.00
2018-09-29T17:55:30.345Z,0.90
2018-09-29T17:58:33.625Z,0.50
2018-09-29T18:01:36.910Z,0.83
2018-09-29T18:04:43.555Z,0.70
2018-09-29T18:07:46.785Z,0.53
2018-09-29T18:25:11.732Z,0.70
2018-09-29T18:42:23.407Z,2.37
2018-09-29T23:51:09.085Z,2.20
2018-09-29T23:54:12.227Z,2.30
2018-09-29T23:57:15.479Z,2.70
